sensor_id;sensor_type;location;lat;lon;timestamp;P1;durP1;ratioP1;P2;durP2;ratioP2
56810;SDS011;42691;47.234;27.494;2022-10-16T00:00:31;6.97;;;4.72;;
56810;SDS011;42691;47.234;27.494;2022-10-16T00:02:58;9.55;;;5.25;;
56810;SDS011;42691;47.234;27.494;2022-10-16T00:05:23;9.93;;;5.03;;
56810;SDS011;42691;47.234;27.494;2022-10-16T00:07:49;11.90;;;5.90;;
56810;SDS011;42691;47.234;27.494;2022-10-16T00:10:14;14.05;;;9.18;;
56810;SDS011;42691;47.234;27.494;2022-10-16T00:12:40;7.15;;;4.32;;
56810;SDS011;42691;47.234;27.494;2022-10-16T00:15:05;8.20;;;5.90;;
56810;SDS011;42691;47.234;27.494;2022-10-16T00:17:31;8.45;;;4.63;;
56810;SDS011;42691;47.234;27.494;2022-10-16T00:19:57;11.23;;;5.93;;
56810;SDS011;42691;47.234;27.494;2022-10-16T00:22:23;11.40;;;5.95;;
56810;SDS011;42691;47.234;27.494;2022-10-16T00:24:48;9.70;;;6.18;;
56810;SDS011;42691;47.234;27.494;2022-10-16T00:27:14;10.20;;;7.25;;
56810;SDS011;42691;47.234;27.494;2022-10-16T00:29:39;12.77;;;5.28;;
56810;SDS011;42691;47.234;27.494;2022-10-16T00:32:04;5.72;;;4.18;;
56810;SDS011;42691;47.234;27.494;2022-10-16T00:34:30;10.35;;;5.05;;
56810;SDS011;42691;47.234;27.494;2022-10-16T00:36:56;11.93;;;5.97;;
56810;SDS011;42691;47.234;27.494;2022-10-16T00:39:21;7.85;;;4.25;;
56810;SDS011;42691;47.234;27.494;2022-10-16T00:41:47;10.90;;;5.28;;
56810;SDS011;42691;47.234;27.494;2022-10-16T00:47:19;7.15;;;4.43;;
56810;SDS011;42691;47.234;27.494;2022-10-16T00:49:53;14.85;;;6.30;;
56810;SDS011;42691;47.234;27.494;2022-10-16T00:52:23;8.95;;;4.22;;
56810;SDS011;42691;47.234;27.494;2022-10-16T00:54:49;9.82;;;4.10;;
56810;SDS011;42691;47.234;27.494;2022-10-16T00:57:15;7.78;;;4.28;;
56810;SDS011;42691;47.234;27.494;2022-10-16T00:59:41;9.52;;;5.55;;
56810;SDS011;42691;47.234;27.494;2022-10-16T01:02:08;10.90;;;6.18;;
56810;SDS011;42691;47.234;27.494;2022-10-16T01:04:40;9.38;;;6.68;;
56810;SDS011;42691;47.234;27.494;2022-10-16T01:15:17;11.90;;;6.35;;
56810;SDS011;42691;47.234;27.494;2022-10-16T01:20:29;8.70;;;4.68;;
56810;SDS011;42691;47.234;27.494;2022-10-16T01:25:25;7.80;;;5.28;;
56810;SDS011;42691;47.234;27.494;2022-10-16T01:28:12;9.90;;;4.88;;
56810;SDS011;42691;47.234;27.494;2022-10-16T01:30:40;9.50;;;6.18;;
56810;SDS011;42691;47.234;27.494;2022-10-16T01:33:10;9.73;;;5.00;;
56810;SDS011;42691;47.234;27.494;2022-10-16T01:35:43;7.95;;;4.28;;
56810;SDS011;42691;47.234;27.494;2022-10-16T01:40:46;7.90;;;4.60;;
56810;SDS011;42691;47.234;27.494;2022-10-16T01:43:17;11.20;;;5.15;;
56810;SDS011;42691;47.234;27.494;2022-10-16T01:45:47;8.02;;;5.25;;
56810;SDS011;42691;47.234;27.494;2022-10-16T01:48:14;9.45;;;5.03;;
56810;SDS011;42691;47.234;27.494;2022-10-16T01:50:43;12.88;;;5.10;;
56810;SDS011;42691;47.234;27.494;2022-10-16T01:53:12;7.88;;;4.63;;
56810;SDS011;42691;47.234;27.494;2022-10-16T01:55:40;11.98;;;7.03;;
56810;SDS011;42691;47.234;27.494;2022-10-16T01:58:10;12.00;;;6.45;;
56810;SDS011;42691;47.234;27.494;2022-10-16T02:00:38;14.90;;;6.05;;
56810;SDS011;42691;47.234;27.494;2022-10-16T02:03:06;9.02;;;5.20;;
56810;SDS011;42691;47.234;27.494;2022-10-16T02:05:44;6.88;;;4.18;;
56810;SDS011;42691;47.234;27.494;2022-10-16T02:08:12;10.68;;;7.22;;
56810;SDS011;42691;47.234;27.494;2022-10-16T02:10:38;9.63;;;5.72;;
56810;SDS011;42691;47.234;27.494;2022-10-16T02:15:42;12.35;;;7.63;;
56810;SDS011;42691;47.234;27.494;2022-10-16T02:18:07;12.00;;;6.68;;
56810;SDS011;42691;47.234;27.494;2022-10-16T02:20:46;27.08;;;6.47;;
56810;SDS011;42691;47.234;27.494;2022-10-16T02:23:27;16.85;;;5.95;;
56810;SDS011;42691;47.234;27.494;2022-10-16T02:26:00;9.85;;;6.38;;
56810;SDS011;42691;47.234;27.494;2022-10-16T02:28:35;18.45;;;9.57;;
56810;SDS011;42691;47.234;27.494;2022-10-16T02:31:08;12.20;;;7.38;;
56810;SDS011;42691;47.234;27.494;2022-10-16T02:33:37;12.85;;;7.35;;
56810;SDS011;42691;47.234;27.494;2022-10-16T02:36:07;12.02;;;6.63;;
56810;SDS011;42691;47.234;27.494;2022-10-16T02:38:33;7.55;;;4.35;;
56810;SDS011;42691;47.234;27.494;2022-10-16T02:40:59;22.23;;;6.22;;
56810;SDS011;42691;47.234;27.494;2022-10-16T02:43:26;10.10;;;4.85;;
56810;SDS011;42691;47.234;27.494;2022-10-16T02:45:51;12.55;;;4.95;;
56810;SDS011;42691;47.234;27.494;2022-10-16T02:48:17;13.45;;;5.45;;
56810;SDS011;42691;47.234;27.494;2022-10-16T02:50:42;9.43;;;5.45;;
56810;SDS011;42691;47.234;27.494;2022-10-16T02:53:08;8.77;;;5.35;;
56810;SDS011;42691;47.234;27.494;2022-10-16T02:55:33;9.32;;;5.78;;
56810;SDS011;42691;47.234;27.494;2022-10-16T02:57:59;7.05;;;4.43;;
56810;SDS011;42691;47.234;27.494;2022-10-16T03:00:24;16.02;;;5.78;;
56810;SDS011;42691;47.234;27.494;2022-10-16T03:02:50;12.10;;;5.10;;
56810;SDS011;42691;47.234;27.494;2022-10-16T03:05:15;11.63;;;6.40;;
56810;SDS011;42691;47.234;27.494;2022-10-16T03:07:41;11.00;;;7.10;;
56810;SDS011;42691;47.234;27.494;2022-10-16T03:10:07;10.82;;;6.68;;
56810;SDS011;42691;47.234;27.494;2022-10-16T03:12:33;7.80;;;5.40;;
56810;SDS011;42691;47.234;27.494;2022-10-16T03:14:58;11.38;;;6.22;;
56810;SDS011;42691;47.234;27.494;2022-10-16T03:17:24;10.45;;;6.32;;
56810;SDS011;42691;47.234;27.494;2022-10-16T03:19:50;8.68;;;5.40;;
56810;SDS011;42691;47.234;27.494;2022-10-16T03:22:15;12.63;;;7.50;;
56810;SDS011;42691;47.234;27.494;2022-10-16T03:24:41;8.93;;;5.43;;
56810;SDS011;42691;47.234;27.494;2022-10-16T03:27:07;12.60;;;7.65;;
56810;SDS011;42691;47.234;27.494;2022-10-16T03:29:33;7.63;;;5.10;;
56810;SDS011;42691;47.234;27.494;2022-10-16T03:31:58;10.10;;;6.07;;
56810;SDS011;42691;47.234;27.494;2022-10-16T03:34:24;8.40;;;4.60;;
56810;SDS011;42691;47.234;27.494;2022-10-16T03:36:50;9.18;;;5.30;;
56810;SDS011;42691;47.234;27.494;2022-10-16T03:39:16;9.93;;;5.32;;
56810;SDS011;42691;47.234;27.494;2022-10-16T03:41:41;7.88;;;5.15;;
56810;SDS011;42691;47.234;27.494;2022-10-16T03:44:07;11.52;;;5.70;;
56810;SDS011;42691;47.234;27.494;2022-10-16T03:46:32;12.43;;;6.32;;
56810;SDS011;42691;47.234;27.494;2022-10-16T03:48:58;5.43;;;4.13;;
56810;SDS011;42691;47.234;27.494;2022-10-16T03:51:23;7.88;;;4.28;;
56810;SDS011;42691;47.234;27.494;2022-10-16T03:53:49;9.55;;;5.57;;
56810;SDS011;42691;47.234;27.494;2022-10-16T03:56:14;7.65;;;5.05;;
56810;SDS011;42691;47.234;27.494;2022-10-16T03:58:40;7.28;;;4.60;;
56810;SDS011;42691;47.234;27.494;2022-10-16T04:01:05;8.85;;;5.57;;
56810;SDS011;42691;47.234;27.494;2022-10-16T04:03:30;9.80;;;5.07;;
56810;SDS011;42691;47.234;27.494;2022-10-16T04:05:56;7.82;;;4.30;;
56810;SDS011;42691;47.234;27.494;2022-10-16T04:08:21;7.68;;;4.97;;
56810;SDS011;42691;47.234;27.494;2022-10-16T04:10:47;7.22;;;4.32;;
56810;SDS011;42691;47.234;27.494;2022-10-16T04:13:12;6.57;;;3.90;;
56810;SDS011;42691;47.234;27.494;2022-10-16T04:15:38;12.32;;;5.70;;
56810;SDS011;42691;47.234;27.494;2022-10-16T04:18:04;6.40;;;3.90;;
56810;SDS011;42691;47.234;27.494;2022-10-16T04:20:30;9.73;;;5.35;;
56810;SDS011;42691;47.234;27.494;2022-10-16T04:22:55;8.00;;;3.95;;
56810;SDS011;42691;47.234;27.494;2022-10-16T04:25:21;13.25;;;4.32;;
56810;SDS011;42691;47.234;27.494;2022-10-16T04:27:47;9.88;;;4.10;;
56810;SDS011;42691;47.234;27.494;2022-10-16T04:30:12;8.43;;;4.18;;
56810;SDS011;42691;47.234;27.494;2022-10-16T04:32:38;8.93;;;4.80;;
56810;SDS011;42691;47.234;27.494;2022-10-16T04:35:04;8.38;;;5.25;;
56810;SDS011;42691;47.234;27.494;2022-10-16T04:37:30;8.15;;;5.03;;
56810;SDS011;42691;47.234;27.494;2022-10-16T04:39:56;8.95;;;4.15;;
56810;SDS011;42691;47.234;27.494;2022-10-16T04:42:21;21.08;;;4.63;;
56810;SDS011;42691;47.234;27.494;2022-10-16T04:44:47;14.25;;;5.18;;
56810;SDS011;42691;47.234;27.494;2022-10-16T04:47:12;10.75;;;4.97;;
56810;SDS011;42691;47.234;27.494;2022-10-16T04:49:38;19.20;;;3.90;;
56810;SDS011;42691;47.234;27.494;2022-10-16T04:52:04;11.70;;;5.18;;
56810;SDS011;42691;47.234;27.494;2022-10-16T04:54:30;10.02;;;5.18;;
56810;SDS011;42691;47.234;27.494;2022-10-16T04:56:55;14.35;;;4.40;;
56810;SDS011;42691;47.234;27.494;2022-10-16T04:59:21;8.18;;;5.50;;
56810;SDS011;42691;47.234;27.494;2022-10-16T05:01:48;5.82;;;3.75;;
56810;SDS011;42691;47.234;27.494;2022-10-16T05:04:14;9.25;;;5.97;;
56810;SDS011;42691;47.234;27.494;2022-10-16T05:06:40;4.68;;;3.10;;
56810;SDS011;42691;47.234;27.494;2022-10-16T05:09:06;5.75;;;4.07;;
56810;SDS011;42691;47.234;27.494;2022-10-16T05:11:32;8.23;;;3.75;;
56810;SDS011;42691;47.234;27.494;2022-10-16T05:13:58;12.52;;;4.30;;
56810;SDS011;42691;47.234;27.494;2022-10-16T05:16:24;7.35;;;3.55;;
56810;SDS011;42691;47.234;27.494;2022-10-16T05:18:50;10.35;;;3.85;;
56810;SDS011;42691;47.234;27.494;2022-10-16T05:21:17;13.10;;;4.03;;
56810;SDS011;42691;47.234;27.494;2022-10-16T05:23:42;9.55;;;6.15;;
56810;SDS011;42691;47.234;27.494;2022-10-16T05:26:08;6.85;;;3.35;;
56810;SDS011;42691;47.234;27.494;2022-10-16T05:28:33;7.80;;;3.50;;
56810;SDS011;42691;47.234;27.494;2022-10-16T05:30:59;8.23;;;3.55;;
56810;SDS011;42691;47.234;27.494;2022-10-16T05:33:29;10.13;;;4.60;;
56810;SDS011;42691;47.234;27.494;2022-10-16T05:35:55;14.88;;;5.55;;
56810;SDS011;42691;47.234;27.494;2022-10-16T05:38:20;8.23;;;4.90;;
56810;SDS011;42691;47.234;27.494;2022-10-16T05:40:52;16.25;;;6.03;;
56810;SDS011;42691;47.234;27.494;2022-10-16T05:43:18;9.18;;;4.47;;
56810;SDS011;42691;47.234;27.494;2022-10-16T05:45:44;12.52;;;4.07;;
56810;SDS011;42691;47.234;27.494;2022-10-16T05:48:09;10.88;;;5.75;;
56810;SDS011;42691;47.234;27.494;2022-10-16T05:50:34;5.05;;;3.47;;
56810;SDS011;42691;47.234;27.494;2022-10-16T05:53:00;20.30;;;4.93;;
56810;SDS011;42691;47.234;27.494;2022-10-16T05:55:25;8.48;;;4.53;;
56810;SDS011;42691;47.234;27.494;2022-10-16T05:57:53;11.65;;;4.25;;
56810;SDS011;42691;47.234;27.494;2022-10-16T06:00:19;8.95;;;4.35;;
56810;SDS011;42691;47.234;27.494;2022-10-16T06:02:45;8.80;;;4.40;;
56810;SDS011;42691;47.234;27.494;2022-10-16T06:05:10;6.60;;;3.88;;
56810;SDS011;42691;47.234;27.494;2022-10-16T06:07:36;9.45;;;4.25;;
56810;SDS011;42691;47.234;27.494;2022-10-16T06:10:02;11.68;;;5.20;;
56810;SDS011;42691;47.234;27.494;2022-10-16T06:12:28;13.50;;;4.28;;
56810;SDS011;42691;47.234;27.494;2022-10-16T06:14:54;7.00;;;4.18;;
56810;SDS011;42691;47.234;27.494;2022-10-16T06:17:19;6.63;;;4.40;;
56810;SDS011;42691;47.234;27.494;2022-10-16T06:19:45;11.30;;;6.70;;
56810;SDS011;42691;47.234;27.494;2022-10-16T06:22:10;7.68;;;5.00;;
56810;SDS011;42691;47.234;27.494;2022-10-16T06:24:36;7.78;;;5.38;;
56810;SDS011;42691;47.234;27.494;2022-10-16T06:27:02;15.02;;;4.30;;
56810;SDS011;42691;47.234;27.494;2022-10-16T06:29:28;14.52;;;6.90;;
56810;SDS011;42691;47.234;27.494;2022-10-16T06:31:54;5.70;;;4.68;;
56810;SDS011;42691;47.234;27.494;2022-10-16T06:34:19;14.85;;;8.35;;
56810;SDS011;42691;47.234;27.494;2022-10-16T06:36:44;19.65;;;6.50;;
56810;SDS011;42691;47.234;27.494;2022-10-16T06:39:10;8.88;;;4.93;;
56810;SDS011;42691;47.234;27.494;2022-10-16T06:41:35;9.02;;;4.68;;
56810;SDS011;42691;47.234;27.494;2022-10-16T06:44:04;14.73;;;4.90;;
56810;SDS011;42691;47.234;27.494;2022-10-16T06:46:30;9.05;;;6.18;;
56810;SDS011;42691;47.234;27.494;2022-10-16T06:48:56;15.23;;;5.45;;
56810;SDS011;42691;47.234;27.494;2022-10-16T06:51:22;11.20;;;5.22;;
56810;SDS011;42691;47.234;27.494;2022-10-16T06:53:51;15.15;;;5.95;;
56810;SDS011;42691;47.234;27.494;2022-10-16T06:58:45;7.97;;;5.55;;
56810;SDS011;42691;47.234;27.494;2022-10-16T07:01:12;9.13;;;4.10;;
56810;SDS011;42691;47.234;27.494;2022-10-16T07:03:39;9.70;;;5.72;;
56810;SDS011;42691;47.234;27.494;2022-10-16T07:06:06;10.75;;;6.38;;
56810;SDS011;42691;47.234;27.494;2022-10-16T07:08:36;8.55;;;5.68;;
56810;SDS011;42691;47.234;27.494;2022-10-16T07:11:07;7.55;;;4.65;;
56810;SDS011;42691;47.234;27.494;2022-10-16T07:13:38;13.82;;;5.28;;
56810;SDS011;42691;47.234;27.494;2022-10-16T07:16:05;8.23;;;4.38;;
56810;SDS011;42691;47.234;27.494;2022-10-16T07:18:33;7.50;;;3.92;;
56810;SDS011;42691;47.234;27.494;2022-10-16T07:21:41;7.90;;;5.97;;
56810;SDS011;42691;47.234;27.494;2022-10-16T07:23:53;7.45;;;3.88;;
56810;SDS011;42691;47.234;27.494;2022-10-16T07:26:20;11.52;;;3.47;;
56810;SDS011;42691;47.234;27.494;2022-10-16T07:28:46;10.98;;;5.00;;
56810;SDS011;42691;47.234;27.494;2022-10-16T07:31:12;7.45;;;5.55;;
56810;SDS011;42691;47.234;27.494;2022-10-16T07:33:39;10.45;;;6.15;;
56810;SDS011;42691;47.234;27.494;2022-10-16T07:36:07;5.65;;;3.53;;
56810;SDS011;42691;47.234;27.494;2022-10-16T07:38:32;7.07;;;4.47;;
56810;SDS011;42691;47.234;27.494;2022-10-16T07:41:03;7.00;;;3.83;;
56810;SDS011;42691;47.234;27.494;2022-10-16T07:43:30;5.95;;;3.78;;
56810;SDS011;42691;47.234;27.494;2022-10-16T07:45:57;8.70;;;3.05;;
56810;SDS011;42691;47.234;27.494;2022-10-16T07:48:23;7.80;;;4.07;;
56810;SDS011;42691;47.234;27.494;2022-10-16T07:50:49;6.53;;;3.33;;
56810;SDS011;42691;47.234;27.494;2022-10-16T07:53:15;7.03;;;3.42;;
56810;SDS011;42691;47.234;27.494;2022-10-16T07:55:40;7.40;;;3.33;;
56810;SDS011;42691;47.234;27.494;2022-10-16T07:58:06;7.28;;;4.32;;
56810;SDS011;42691;47.234;27.494;2022-10-16T08:00:32;5.38;;;4.40;;
56810;SDS011;42691;47.234;27.494;2022-10-16T08:02:58;6.93;;;4.25;;
56810;SDS011;42691;47.234;27.494;2022-10-16T08:05:27;6.43;;;3.80;;
56810;SDS011;42691;47.234;27.494;2022-10-16T08:07:53;6.07;;;3.25;;
56810;SDS011;42691;47.234;27.494;2022-10-16T08:10:20;11.40;;;3.65;;
56810;SDS011;42691;47.234;27.494;2022-10-16T08:12:47;7.32;;;3.00;;
56810;SDS011;42691;47.234;27.494;2022-10-16T08:15:12;5.03;;;2.53;;
56810;SDS011;42691;47.234;27.494;2022-10-16T08:17:38;9.45;;;2.55;;
56810;SDS011;42691;47.234;27.494;2022-10-16T08:20:04;11.70;;;3.38;;
56810;SDS011;42691;47.234;27.494;2022-10-16T08:22:30;6.18;;;3.63;;
56810;SDS011;42691;47.234;27.494;2022-10-16T08:24:56;6.03;;;3.45;;
56810;SDS011;42691;47.234;27.494;2022-10-16T08:27:21;12.85;;;4.18;;
56810;SDS011;42691;47.234;27.494;2022-10-16T08:29:48;11.50;;;3.72;;
56810;SDS011;42691;47.234;27.494;2022-10-16T08:32:14;8.98;;;3.15;;
56810;SDS011;42691;47.234;27.494;2022-10-16T08:34:39;8.63;;;2.83;;
56810;SDS011;42691;47.234;27.494;2022-10-16T08:37:05;6.82;;;3.17;;
56810;SDS011;42691;47.234;27.494;2022-10-16T08:39:32;6.03;;;4.07;;
56810;SDS011;42691;47.234;27.494;2022-10-16T08:50:25;6.97;;;3.22;;
56810;SDS011;42691;47.234;27.494;2022-10-16T08:52:53;8.55;;;3.45;;
56810;SDS011;42691;47.234;27.494;2022-10-16T08:58:17;6.43;;;2.35;;
56810;SDS011;42691;47.234;27.494;2022-10-16T09:00:46;15.32;;;3.40;;
56810;SDS011;42691;47.234;27.494;2022-10-16T09:03:18;5.72;;;2.65;;
56810;SDS011;42691;47.234;27.494;2022-10-16T09:11:12;7.57;;;3.13;;
56810;SDS011;42691;47.234;27.494;2022-10-16T09:13:51;5.55;;;3.15;;
56810;SDS011;42691;47.234;27.494;2022-10-16T09:16:29;6.05;;;3.05;;
56810;SDS011;42691;47.234;27.494;2022-10-16T09:19:13;11.45;;;4.30;;
56810;SDS011;42691;47.234;27.494;2022-10-16T09:21:45;5.15;;;3.90;;
56810;SDS011;42691;47.234;27.494;2022-10-16T09:26:45;4.75;;;2.33;;
56810;SDS011;42691;47.234;27.494;2022-10-16T09:29:12;4.80;;;3.15;;
56810;SDS011;42691;47.234;27.494;2022-10-16T09:31:39;7.07;;;2.97;;
56810;SDS011;42691;47.234;27.494;2022-10-16T09:34:05;6.60;;;2.83;;
56810;SDS011;42691;47.234;27.494;2022-10-16T09:36:42;6.13;;;3.38;;
56810;SDS011;42691;47.234;27.494;2022-10-16T09:39:11;6.68;;;3.50;;
56810;SDS011;42691;47.234;27.494;2022-10-16T09:41:37;4.40;;;2.55;;
56810;SDS011;42691;47.234;27.494;2022-10-16T09:44:28;4.32;;;2.45;;
56810;SDS011;42691;47.234;27.494;2022-10-16T09:47:03;3.60;;;2.38;;
56810;SDS011;42691;47.234;27.494;2022-10-16T09:52:06;5.32;;;2.30;;
56810;SDS011;42691;47.234;27.494;2022-10-16T09:54:37;8.70;;;3.40;;
56810;SDS011;42691;47.234;27.494;2022-10-16T09:57:14;7.55;;;3.03;;
56810;SDS011;42691;47.234;27.494;2022-10-16T09:59:47;4.50;;;2.70;;
56810;SDS011;42691;47.234;27.494;2022-10-16T10:02:15;6.07;;;3.22;;
56810;SDS011;42691;47.234;27.494;2022-10-16T10:04:44;6.35;;;3.25;;
56810;SDS011;42691;47.234;27.494;2022-10-16T10:07:26;15.00;;;3.75;;
56810;SDS011;42691;47.234;27.494;2022-10-16T10:09:53;3.72;;;2.38;;
56810;SDS011;42691;47.234;27.494;2022-10-16T10:12:25;5.20;;;2.78;;
56810;SDS011;42691;47.234;27.494;2022-10-16T10:14:53;6.03;;;3.00;;
56810;SDS011;42691;47.234;27.494;2022-10-16T10:17:21;5.50;;;3.47;;
56810;SDS011;42691;47.234;27.494;2022-10-16T10:19:55;7.55;;;3.22;;
56810;SDS011;42691;47.234;27.494;2022-10-16T10:22:27;6.53;;;2.40;;
56810;SDS011;42691;47.234;27.494;2022-10-16T10:27:42;7.65;;;2.95;;
56810;SDS011;42691;47.234;27.494;2022-10-16T10:33:30;3.70;;;2.35;;
56810;SDS011;42691;47.234;27.494;2022-10-16T10:36:12;3.28;;;2.42;;
56810;SDS011;42691;47.234;27.494;2022-10-16T10:57:29;3.83;;;2.90;;
56810;SDS011;42691;47.234;27.494;2022-10-16T11:03:11;6.53;;;2.28;;
56810;SDS011;42691;47.234;27.494;2022-10-16T11:05:49;9.45;;;2.42;;
56810;SDS011;42691;47.234;27.494;2022-10-16T11:09:23;6.20;;;2.92;;
56810;SDS011;42691;47.234;27.494;2022-10-16T11:25:42;4.47;;;3.05;;
56810;SDS011;42691;47.234;27.494;2022-10-16T11:55:44;8.50;;;3.08;;
56810;SDS011;42691;47.234;27.494;2022-10-16T12:03:45;4.38;;;2.70;;
56810;SDS011;42691;47.234;27.494;2022-10-16T12:06:29;9.57;;;3.70;;
56810;SDS011;42691;47.234;27.494;2022-10-16T12:09:03;3.15;;;2.17;;
56810;SDS011;42691;47.234;27.494;2022-10-16T12:16:38;5.80;;;2.03;;
56810;SDS011;42691;47.234;27.494;2022-10-16T12:19:19;4.15;;;1.70;;
56810;SDS011;42691;47.234;27.494;2022-10-16T12:21:45;5.55;;;2.22;;
56810;SDS011;42691;47.234;27.494;2022-10-16T12:27:02;7.00;;;4.22;;
56810;SDS011;42691;47.234;27.494;2022-10-16T12:29:46;5.78;;;2.17;;
56810;SDS011;42691;47.234;27.494;2022-10-16T12:35:04;5.78;;;3.33;;
56810;SDS011;42691;47.234;27.494;2022-10-16T12:37:33;4.90;;;2.55;;
56810;SDS011;42691;47.234;27.494;2022-10-16T12:40:11;4.53;;;3.20;;
56810;SDS011;42691;47.234;27.494;2022-10-16T12:42:48;5.60;;;2.38;;
56810;SDS011;42691;47.234;27.494;2022-10-16T12:45:28;6.47;;;2.22;;
56810;SDS011;42691;47.234;27.494;2022-10-16T12:47:56;9.00;;;2.83;;
56810;SDS011;42691;47.234;27.494;2022-10-16T12:50:25;11.63;;;1.92;;
56810;SDS011;42691;47.234;27.494;2022-10-16T12:52:53;4.40;;;2.35;;
56810;SDS011;42691;47.234;27.494;2022-10-16T12:55:19;4.65;;;2.83;;
56810;SDS011;42691;47.234;27.494;2022-10-16T12:57:56;3.95;;;2.88;;
56810;SDS011;42691;47.234;27.494;2022-10-16T13:09:04;5.93;;;2.67;;
56810;SDS011;42691;47.234;27.494;2022-10-16T13:29:54;5.25;;;2.45;;
56810;SDS011;42691;47.234;27.494;2022-10-16T13:32:27;6.55;;;2.28;;
56810;SDS011;42691;47.234;27.494;2022-10-16T13:34:53;9.75;;;2.00;;
56810;SDS011;42691;47.234;27.494;2022-10-16T13:37:21;5.10;;;2.35;;
56810;SDS011;42691;47.234;27.494;2022-10-16T13:39:48;6.60;;;3.75;;
56810;SDS011;42691;47.234;27.494;2022-10-16T13:44:52;2.30;;;1.98;;
56810;SDS011;42691;47.234;27.494;2022-10-16T13:47:23;6.07;;;2.42;;
56810;SDS011;42691;47.234;27.494;2022-10-16T13:50:03;5.30;;;3.28;;
56810;SDS011;42691;47.234;27.494;2022-10-16T13:52:37;4.80;;;2.58;;
56810;SDS011;42691;47.234;27.494;2022-10-16T13:55:03;6.72;;;2.35;;
56810;SDS011;42691;47.234;27.494;2022-10-16T13:57:35;3.97;;;2.60;;
56810;SDS011;42691;47.234;27.494;2022-10-16T14:00:00;8.52;;;2.55;;
56810;SDS011;42691;47.234;27.494;2022-10-16T14:02:33;3.50;;;2.40;;
56810;SDS011;42691;47.234;27.494;2022-10-16T14:05:04;5.40;;;2.38;;
56810;SDS011;42691;47.234;27.494;2022-10-16T14:07:34;6.53;;;2.42;;
56810;SDS011;42691;47.234;27.494;2022-10-16T14:10:04;4.82;;;2.63;;
56810;SDS011;42691;47.234;27.494;2022-10-16T14:12:32;6.70;;;2.50;;
56810;SDS011;42691;47.234;27.494;2022-10-16T14:14:59;8.43;;;3.63;;
56810;SDS011;42691;47.234;27.494;2022-10-16T14:17:31;3.35;;;2.50;;
56810;SDS011;42691;47.234;27.494;2022-10-16T14:20:00;5.10;;;2.78;;
56810;SDS011;42691;47.234;27.494;2022-10-16T14:22:39;4.50;;;2.45;;
56810;SDS011;42691;47.234;27.494;2022-10-16T14:28:02;5.85;;;2.95;;
56810;SDS011;42691;47.234;27.494;2022-10-16T14:30:55;6.93;;;3.80;;
56810;SDS011;42691;47.234;27.494;2022-10-16T14:38:29;8.18;;;2.97;;
56810;SDS011;42691;47.234;27.494;2022-10-16T14:40:57;5.35;;;2.55;;
56810;SDS011;42691;47.234;27.494;2022-10-16T14:43:42;7.57;;;2.85;;
56810;SDS011;42691;47.234;27.494;2022-10-16T14:46:18;7.63;;;3.08;;
56810;SDS011;42691;47.234;27.494;2022-10-16T14:48:49;18.20;;;2.92;;
56810;SDS011;42691;47.234;27.494;2022-10-16T14:51:16;6.75;;;2.40;;
56810;SDS011;42691;47.234;27.494;2022-10-16T14:53:43;4.88;;;2.63;;
56810;SDS011;42691;47.234;27.494;2022-10-16T14:56:19;10.38;;;3.42;;
56810;SDS011;42691;47.234;27.494;2022-10-16T14:58:47;5.80;;;2.38;;
56810;SDS011;42691;47.234;27.494;2022-10-16T15:01:15;7.05;;;2.80;;
56810;SDS011;42691;47.234;27.494;2022-10-16T15:03:41;5.72;;;2.72;;
56810;SDS011;42691;47.234;27.494;2022-10-16T15:06:10;6.13;;;2.42;;
56810;SDS011;42691;47.234;27.494;2022-10-16T15:08:37;6.43;;;2.95;;
56810;SDS011;42691;47.234;27.494;2022-10-16T15:11:02;4.00;;;2.60;;
56810;SDS011;42691;47.234;27.494;2022-10-16T15:13:28;7.30;;;2.80;;
56810;SDS011;42691;47.234;27.494;2022-10-16T15:15:54;6.75;;;3.88;;
56810;SDS011;42691;47.234;27.494;2022-10-16T15:18:19;5.20;;;3.22;;
56810;SDS011;42691;47.234;27.494;2022-10-16T15:20:47;8.27;;;2.72;;
56810;SDS011;42691;47.234;27.494;2022-10-16T15:23:15;10.05;;;3.65;;
56810;SDS011;42691;47.234;27.494;2022-10-16T15:25:50;9.05;;;2.67;;
56810;SDS011;42691;47.234;27.494;2022-10-16T15:28:19;5.07;;;4.10;;
56810;SDS011;42691;47.234;27.494;2022-10-16T15:30:46;3.55;;;2.33;;
56810;SDS011;42691;47.234;27.494;2022-10-16T15:33:15;6.68;;;3.22;;
56810;SDS011;42691;47.234;27.494;2022-10-16T15:35:42;7.97;;;3.08;;
56810;SDS011;42691;47.234;27.494;2022-10-16T15:38:10;4.22;;;2.78;;
56810;SDS011;42691;47.234;27.494;2022-10-16T15:40:37;3.97;;;2.40;;
56810;SDS011;42691;47.234;27.494;2022-10-16T15:43:03;5.97;;;3.38;;
56810;SDS011;42691;47.234;27.494;2022-10-16T15:45:28;15.20;;;4.00;;
56810;SDS011;42691;47.234;27.494;2022-10-16T15:47:54;36.85;;;7.47;;
56810;SDS011;42691;47.234;27.494;2022-10-16T15:50:19;22.80;;;4.20;;
56810;SDS011;42691;47.234;27.494;2022-10-16T15:52:44;8.65;;;4.00;;
56810;SDS011;42691;47.234;27.494;2022-10-16T15:55:11;5.18;;;2.60;;
56810;SDS011;42691;47.234;27.494;2022-10-16T15:57:38;14.15;;;2.70;;
56810;SDS011;42691;47.234;27.494;2022-10-16T16:00:09;10.27;;;5.30;;
56810;SDS011;42691;47.234;27.494;2022-10-16T16:02:42;7.90;;;3.45;;
56810;SDS011;42691;47.234;27.494;2022-10-16T16:05:09;8.27;;;5.43;;
56810;SDS011;42691;47.234;27.494;2022-10-16T16:07:35;4.47;;;2.28;;
56810;SDS011;42691;47.234;27.494;2022-10-16T16:10:03;8.00;;;3.55;;
56810;SDS011;42691;47.234;27.494;2022-10-16T16:12:32;12.63;;;4.35;;
56810;SDS011;42691;47.234;27.494;2022-10-16T16:14:58;6.93;;;3.72;;
56810;SDS011;42691;47.234;27.494;2022-10-16T16:17:23;10.05;;;5.63;;
56810;SDS011;42691;47.234;27.494;2022-10-16T16:19:49;8.15;;;4.28;;
56810;SDS011;42691;47.234;27.494;2022-10-16T16:22:15;11.15;;;5.32;;
56810;SDS011;42691;47.234;27.494;2022-10-16T16:24:41;7.05;;;5.47;;
56810;SDS011;42691;47.234;27.494;2022-10-16T16:27:06;10.15;;;4.72;;
56810;SDS011;42691;47.234;27.494;2022-10-16T16:29:32;6.45;;;5.57;;
56810;SDS011;42691;47.234;27.494;2022-10-16T16:31:58;9.98;;;4.47;;
56810;SDS011;42691;47.234;27.494;2022-10-16T16:34:25;11.40;;;4.68;;
56810;SDS011;42691;47.234;27.494;2022-10-16T16:36:50;8.68;;;6.43;;
56810;SDS011;42691;47.234;27.494;2022-10-16T16:39:16;6.13;;;4.53;;
56810;SDS011;42691;47.234;27.494;2022-10-16T16:41:42;5.80;;;3.28;;
56810;SDS011;42691;47.234;27.494;2022-10-16T16:44:08;5.82;;;3.33;;
56810;SDS011;42691;47.234;27.494;2022-10-16T16:46:35;12.27;;;5.10;;
56810;SDS011;42691;47.234;27.494;2022-10-16T16:49:01;7.78;;;6.00;;
56810;SDS011;42691;47.234;27.494;2022-10-16T16:51:27;9.05;;;5.55;;
56810;SDS011;42691;47.234;27.494;2022-10-16T16:53:53;6.25;;;3.90;;
56810;SDS011;42691;47.234;27.494;2022-10-16T16:56:20;11.60;;;4.72;;
56810;SDS011;42691;47.234;27.494;2022-10-16T16:58:48;15.77;;;7.88;;
56810;SDS011;42691;47.234;27.494;2022-10-16T17:01:14;10.98;;;6.93;;
56810;SDS011;42691;47.234;27.494;2022-10-16T17:03:41;11.32;;;7.25;;
56810;SDS011;42691;47.234;27.494;2022-10-16T17:06:12;9.40;;;8.00;;
56810;SDS011;42691;47.234;27.494;2022-10-16T17:08:39;9.63;;;6.10;;
56810;SDS011;42691;47.234;27.494;2022-10-16T17:11:05;11.52;;;8.20;;
56810;SDS011;42691;47.234;27.494;2022-10-16T17:13:36;12.35;;;5.72;;
56810;SDS011;42691;47.234;27.494;2022-10-16T17:16:03;12.40;;;6.10;;
56810;SDS011;42691;47.234;27.494;2022-10-16T17:18:29;15.65;;;5.72;;
56810;SDS011;42691;47.234;27.494;2022-10-16T17:20:58;20.35;;;9.45;;
56810;SDS011;42691;47.234;27.494;2022-10-16T17:23:24;8.50;;;4.53;;
56810;SDS011;42691;47.234;27.494;2022-10-16T17:25:50;8.55;;;5.00;;